Terminal Aerodrome Forecast
Issued by NWS

Home | Current Version | Previous Version | Text Only | Print | Product List | Glossary On
Versions: 1 2 3 4 5 6 7 8 9 10 11 12 13 14
000
FTUS42 KTBW 241700
TAFRSW
TAF
KRSW 241732Z 2418/2518 25010KT P6SM FEW030
     FM250200 VRB02KT P6SM SKC
     FM251600 25007KT P6SM FEW030=

USA.gov is the U.S. government's official web portal to all federal, state and local government web resources and services.